Mercur 301 — YP2351 — position and weather

sailwx.info

Track history (hours):
 
Tides and Currents Weather Stations Pressure Air Temp Water Temp Dewpoint Dewpoint Depression Visibility Wind Speed Wind Dir Waves Ship Positions

Mercur 301

Last reported at 2017-Oct-18 10:43 UTC. Time now 2017-Oct-19 05:44 UTC.
Position N 47°15' E 018°55'.

Length 35 m; draft 2.3 m.

Type: Ship. MMSI: 264162351.

Date/timePositionNaut miles runAvg speedWind from/ knotsBaromVisibWave heightAir tempDewpointWater temp
2017-Oct-18 10:43N 47°15' E 018°55'2 7.2
2017-Oct-18 10:31N 47°16' E 018°55'4 7.0
2017-Oct-18 10:00N 47°20' E 018°56'3 5.9
2017-Oct-18 09:30N 47°22' E 018°58'1 0.4
2017-Oct-18 07:33N 47°23' E 018°59'0 2.0
2017-Oct-18 07:21N 47°23' E 018°59'2 6.9
2017-Oct-18 07:00N 47°24' E 019°02'2 3.7
2017-Oct-18 06:30N 47°26' E 019°03'0 0.4
2017-Oct-18 06:01N 47°26' E 019°03'0 0.0
2017-Oct-18 05:31N 47°26' E 019°03'0 0.0
2017-Oct-18 05:00N 47°26' E 019°03'0 0.0
2017-Oct-18 04:31N 47°26' E 019°03'0 0.0
2017-Oct-18 04:00N 47°26' E 019°03'0 0.0
2017-Oct-18 03:31N 47°26' E 019°03'0 0.0
2017-Oct-18 03:00N 47°26' E 019°03'0 0.0
2017-Oct-18 02:30N 47°26' E 019°03'0 0.0
2017-Oct-18 02:01N 47°26' E 019°03'0 0.0
2017-Oct-18 01:31N 47°26' E 019°03'0 0.0
2017-Oct-18 01:00N 47°26' E 019°03'0 0.0
2017-Oct-18 00:30N 47°26' E 019°03'0 0.0
2017-Oct-18 00:00N 47°26' E 019°03'0 0.0
2017-Oct-17 23:29N 47°26' E 019°03'0 0.0
2017-Oct-17 22:59N 47°26' E 019°03'0 0.0
2017-Oct-17 22:31N 47°26' E 019°03'0 0.0
2017-Oct-17 22:00N 47°26' E 019°03'0 0.0
2017-Oct-17 21:30N 47°26' E 019°03'0 0.0
2017-Oct-17 21:00N 47°26' E 019°03'0 0.0
2017-Oct-17 20:30N 47°26' E 019°03'0 0.0
2017-Oct-17 20:00N 47°26' E 019°03'0 0.2
2017-Oct-17 19:30N 47°26' E 019°03'0 0.2
2017-Oct-17 19:00N 47°26' E 019°03'1 1.6
2017-Oct-17 18:30N 47°25' E 019°03'3 5.5
2017-Oct-17 17:57N 47°23' E 018°59'1 0.7
2017-Oct-17 17:12N 47°23' E 018°59'0 0.0
2017-Oct-17 17:00N 47°23' E 018°59'0 0.1
2017-Oct-17 16:30N 47°23' E 018°59'0 0.0
2017-Oct-17 15:49N 47°23' E 018°59'0 0.0
2017-Oct-17 15:19N 47°23' E 018°59'1 0.8
2017-Oct-17 14:40N 47°23' E 018°59'1 6.5
2017-Oct-17 14:30N 47°23' E 019°01'3 6.8
2017-Oct-17 14:00N 47°26' E 019°03'0 0.9
2017-Oct-17 13:29N 47°26' E 019°03'0 0.1
2017-Oct-17 13:00N 47°26' E 019°03'0 0.2
2017-Oct-17 12:31N 47°26' E 019°03'0 0.2
2017-Oct-17 12:00N 47°26' E 019°03'1 1.4
2017-Oct-17 11:30N 47°25' E 019°03'0 0.6
2017-Oct-17 11:01N 47°25' E 019°03'1 2.7
2017-Oct-17 10:31N 47°27' E 019°04'0 0.1
2017-Oct-17 10:01N 47°27' E 019°04'0 0.2
2017-Oct-17 09:30N 47°27' E 019°04'0 0.0
2017-Oct-17 09:00N 47°27' E 019°04'0 0.0
2017-Oct-17 08:31N 47°27' E 019°04'0 0.0
2017-Oct-17 08:00N 47°27' E 019°04'0 0.0
2017-Oct-17 07:30N 47°27' E 019°04'0 0.0
2017-Oct-17 07:00N 47°27' E 019°04'0 1.0
2017-Oct-17 06:31N 47°26' E 019°03'1 1.1
2017-Oct-17 06:00N 47°26' E 019°03'0 0.0
2017-Oct-17 05:30N 47°26' E 019°03'0 0.0
2017-Oct-17 04:59N 47°26' E 019°03'0 0.0
2017-Oct-17 04:30N 47°26' E 019°03'0 0.0
2017-Oct-17 04:01N 47°26' E 019°03'0 0.0
2017-Oct-17 03:30N 47°26' E 019°03'0 0.0
2017-Oct-17 03:01N 47°26' E 019°03'0 0.0
2017-Oct-17 02:30N 47°26' E 019°03'0 0.0
2017-Oct-17 02:01N 47°26' E 019°03'0 0.0
2017-Oct-17 01:30N 47°26' E 019°03'0 0.0
2017-Oct-17 01:00N 47°26' E 019°03'0 0.0
2017-Oct-17 00:30N 47°26' E 019°03'0 0.0
2017-Oct-17 00:01N 47°26' E 019°03'0 0.0
2017-Oct-16 23:30N 47°26' E 019°03'0 0.0
2017-Oct-16 23:01N 47°26' E 019°03'2 4.1
2017-Oct-16 22:29N 47°28' E 019°04'1 2.0
2017-Oct-16 22:01N 47°29' E 019°04'0 0.0
2017-Oct-16 21:31N 47°29' E 019°04'0 0.0
2017-Oct-16 21:01N 47°29' E 019°04'0 0.0
2017-Oct-16 20:30N 47°29' E 019°04'0 0.0
2017-Oct-16 20:00N 47°29' E 019°04'0 0.0
2017-Oct-16 19:31N 47°29' E 019°04'0 0.3
2017-Oct-16 19:01N 47°29' E 019°04'2 4.5
2017-Oct-16 18:31N 47°27' E 019°03'1 1.4
2017-Oct-16 18:00N 47°26' E 019°03'2 3.3
2017-Oct-16 17:30N 47°24' E 019°02'3 6.2
2017-Oct-16 17:00N 47°23' E 018°58'3 5.6
2017-Oct-16 16:29N 47°20' E 018°57'  
2017-Oct-14 08:12N 46°01' E 018°41'0 0.0
2017-Oct-14 07:56N 46°01' E 018°41'0 0.0
2017-Oct-14 07:28N 46°01' E 018°41'0 0.0
2017-Oct-14 07:00N 46°01' E 018°41'0 0.0
2017-Oct-14 06:30N 46°01' E 018°41'1 1.3
2017-Oct-14 05:52N 46°00' E 018°41'0 0.0
2017-Oct-14 05:29N 46°00' E 018°41'0 0.0
2017-Oct-14 05:00N 46°00' E 018°41'3 3.1
2017-Oct-14 04:00N 45°58' E 018°45'2 3.2
2017-Oct-14 03:29N 45°57' E 018°46'2 3.3
2017-Oct-14 02:56N 45°55' E 018°48'1 3.4
2017-Oct-14 02:30N 45°54' E 018°49'2 3.4
2017-Oct-14 02:01N 45°53' E 018°50'1 2.9
2017-Oct-14 01:30N 45°52' E 018°51'1 2.8
2017-Oct-14 01:00N 45°50' E 018°51'0 0.0
2017-Oct-14 00:28N 45°50' E 018°51'0 0.0
2017-Oct-14 00:01N 45°50' E 018°51'0 0.0
2017-Oct-13 23:30N 45°50' E 018°51'0 0.0
2017-Oct-13 22:59N 45°50' E 018°51'0 0.0
2017-Oct-13 21:43N 45°50' E 018°51'0 0.0
2017-Oct-13 21:30N 45°50' E 018°51'0 0.0
2017-Oct-13 21:00N 45°50' E 018°51'0 0.0
2017-Oct-13 20:30N 45°50' E 018°51'0 0.0
2017-Oct-13 19:59N 45°50' E 018°51'0 0.0
2017-Oct-13 19:30N 45°50' E 018°51'0 0.0
2017-Oct-13 19:00N 45°50' E 018°51'0 0.0
2017-Oct-13 18:30N 45°50' E 018°51'0 0.0
2017-Oct-13 18:00N 45°50' E 018°51'0 0.0
2017-Oct-13 17:30N 45°50' E 018°51'0 0.0
2017-Oct-13 17:00N 45°50' E 018°51'1 1.0
2017-Oct-13 16:30N 45°50' E 018°51'2 3.6
2017-Oct-13 16:01N 45°48' E 018°51'2 3.2
2017-Oct-13 15:31N 45°47' E 018°53'1 3.0
2017-Oct-13 15:00N 45°46' E 018°54'2 3.5
2017-Oct-13 14:31N 45°44' E 018°54'2 3.6
2017-Oct-13 14:01N 45°42' E 018°55'2 3.5
2017-Oct-13 13:31N 45°41' E 018°56'2 3.0
2017-Oct-13 13:01N 45°40' E 018°58'2 3.5
2017-Oct-13 12:31N 45°39' E 018°56'2 3.1
2017-Oct-13 12:01N 45°37' E 018°55'2 3.1
2017-Oct-13 11:31N 45°36' E 018°55'2 3.4
2017-Oct-13 11:01N 45°34' E 018°53'1 2.9
2017-Oct-13 10:30N 45°33' E 018°55'2 3.3
2017-Oct-13 10:01N 45°32' E 018°56'2 3.1
2017-Oct-13 09:31N 45°32' E 018°59'2 3.2
2017-Oct-13 09:01N 45°33' E 019°00'1 2.0
2017-Oct-13 08:31N 45°33' E 019°02'1 2.7
2017-Oct-13 08:01N 45°32' E 019°03'1 2.6
2017-Oct-13 07:31N 45°32' E 019°05'1 2.9
2017-Oct-13 07:01N 45°30' E 019°06'2 3.2
2017-Oct-13 06:31N 45°29' E 019°04'2 3.5
2017-Oct-13 06:01N 45°29' E 019°02'1 2.8
2017-Oct-13 05:31N 45°30' E 018°60'2 3.2
2017-Oct-13 05:01N 45°28' E 018°59'2 3.3
2017-Oct-13 04:30N 45°26' E 018°60'2 3.2
2017-Oct-13 04:01N 45°25' E 019°02'1 2.8
2017-Oct-13 03:31N 45°24' E 019°01'2 3.4
2017-Oct-13 03:01N 45°24' E 018°59'1 2.9
2017-Oct-13 02:31N 45°22' E 018°58'1 1.1
2017-Oct-13 02:00N 45°22' E 018°59'0 0.0
2017-Oct-13 01:31N 45°22' E 018°59'0 0.0
2017-Oct-13 00:59N 45°22' E 018°59'0 0.0
2017-Oct-13 00:22N 45°22' E 018°59'0 0.0
2017-Oct-13 00:00N 45°22' E 018°59'0 0.0
2017-Oct-12 23:30N 45°22' E 018°59'0 0.0
2017-Oct-12 22:58N 45°22' E 018°59'0 0.0
2017-Oct-12 22:31N 45°22' E 018°59'0 0.0
2017-Oct-12 21:57N 45°22' E 018°59'0 0.0
2017-Oct-12 21:29N 45°22' E 018°59'0 0.0
2017-Oct-12 21:00N 45°22' E 018°59'0 0.1
2017-Oct-12 20:30N 45°22' E 018°59'2 3.2
2017-Oct-12 20:01N 45°21' E 019°01'2 3.4
2017-Oct-12 19:31N 45°21' E 019°03'2 3.5
2017-Oct-12 19:00N 45°20' E 019°05'2 3.2
2017-Oct-12 18:31N 45°19' E 019°06'2 3.1
2017-Oct-12 17:48N 45°17' E 019°08'1 3.5
2017-Oct-12 17:31N 45°17' E 019°09'2 3.5
2017-Oct-12 17:00N 45°16' E 019°12'5 3.1
2017-Oct-12 15:29N 45°14' E 019°18'2 3.5
2017-Oct-12 14:51N 45°14' E 019°21'1 3.6
2017-Oct-12 14:31N 45°14' E 019°23'2 3.6
2017-Oct-12 14:01N 45°14' E 019°25'3 3.3
2017-Oct-12 13:01N 45°15' E 019°30'0 2.1
2017-Oct-12 13:00N 45°15' E 019°30'2 2.0
2017-Oct-12 12:10N 45°15' E 019°32'2 3.0
2017-Oct-12 11:26N 45°13' E 019°34'4 2.9
2017-Oct-12 10:03N 45°13' E 019°40'0 3.5
2017-Oct-12 09:59N 45°13' E 019°40'2 3.4
2017-Oct-12 09:27N 45°14' E 019°42'2 3.4
2017-Oct-12 09:00N 45°14' E 019°45'2 3.6
2017-Oct-12 08:30N 45°13' E 019°47'4 1.8
2017-Oct-12 06:26N 45°16' E 019°51'0 0.0
2017-Oct-12 04:36N 45°16' E 019°51'0 4.1
2017-Oct-12 04:31N 45°16' E 019°52'1 0.4
2017-Oct-12 01:31N 45°15' E 019°54'0 3.0
2017-Oct-12 01:30N 45°15' E 019°54'2 3.5
2017-Oct-12 01:00N 45°14' E 019°55'2 3.7
2017-Oct-12 00:31N 45°13' E 019°56'2 3.8
2017-Oct-12 00:00N 45°11' E 019°58'2 3.7
2017-Oct-11 23:31N 45°11' E 020°01'2 3.5
2017-Oct-11 23:00N 45°10' E 020°03'2 3.4
2017-Oct-11 22:30N 45°10' E 020°06'2 3.3
2017-Oct-11 22:00N 45°10' E 020°08'2 3.7
2017-Oct-11 21:30N 45°11' E 020°10'2 3.2
2017-Oct-11 21:00N 45°10' E 020°12'2 3.5
2017-Oct-11 20:30N 45°10' E 020°15'2 3.6
2017-Oct-11 20:00N 45°08' E 020°16'2 3.9
2017-Oct-11 19:30N 45°07' E 020°18'2 3.8
2017-Oct-11 19:00N 45°05' E 020°19'2 3.9
2017-Oct-11 18:30N 45°04' E 020°21'2 4.0
2017-Oct-11 18:00N 45°02' E 020°22'2 3.2
2017-Oct-11 17:30N 45°00' E 020°21'2 4.1
2017-Oct-11 17:00N 44°60' E 020°18'53 3.1
2017-Oct-10 23:56N 44°46' E 021°30'0 0.0
2017-Oct-10 23:17N 44°46' E 021°30'0 0.0
2017-Oct-10 22:57N 44°46' E 021°30'0 0.0
2017-Oct-10 22:31N 44°46' E 021°30'0 0.0
2017-Oct-10 22:01N 44°46' E 021°30'0 0.0
2017-Oct-10 21:31N 44°46' E 021°30'0 0.0
2017-Oct-10 20:52N 44°46' E 021°30'0 0.0
2017-Oct-10 20:30N 44°46' E 021°30'0 0.5
2017-Oct-10 20:00N 44°46' E 021°31'0 0.3
2017-Oct-10 19:30N 44°46' E 021°31'0 0.0
2017-Oct-10 18:52N 44°46' E 021°31'0 0.0
2017-Oct-10 18:30N 44°46' E 021°31'0 0.0
2017-Oct-10 17:52N 44°46' E 021°31'0 0.0
2017-Oct-10 17:30N 44°46' E 021°31'0 0.0
2017-Oct-10 16:52N 44°46' E 021°31'0 0.9
2017-Oct-10 16:30N 44°46' E 021°31'3 4.5
2017-Oct-10 15:56N 44°46' E 021°34'2 4.4
2017-Oct-10 15:30N 44°45' E 021°36'2 4.5
2017-Oct-10 15:00N 44°43' E 021°38'16 4.5
2017-Oct-10 11:20N 44°38' E 021°60'2 4.9
2017-Oct-10 10:56N 44°36' E 022°01'2 5.0
2017-Oct-10 10:30N 44°34' E 022°02'3 5.1
2017-Oct-10 10:01N 44°32' E 022°04'3 5.2
2017-Oct-10 09:31N 44°30' E 022°06'3 5.4
2017-Oct-10 09:00N 44°28' E 022°09'2 4.8
2017-Oct-10 08:30N 44°30' E 022°12'11 0.6
2017-Oct-09 12:21N 44°28' E 022°27'2 5.0
2017-Oct-09 12:00N 44°26' E 022°29'2 4.8
2017-Oct-09 11:31N 44°24' E 022°30'3 5.1
2017-Oct-09 11:01N 44°22' E 022°31'3 5.0
2017-Oct-09 10:31N 44°20' E 022°33'1 2.0
2017-Oct-09 10:01N 44°19' E 022°34'1 1.5
2017-Oct-09 09:31N 44°19' E 022°35'2 3.6
2017-Oct-09 09:01N 44°18' E 022°37'2 3.6
2017-Oct-09 08:31N 44°17' E 022°39'2 3.5
2017-Oct-09 08:01N 44°16' E 022°41'2 3.8
2017-Oct-09 07:31N 44°14' E 022°41'2 3.3
2017-Oct-09 07:00N 44°13' E 022°41'2 3.7
2017-Oct-09 06:30N 44°12' E 022°44'1 2.9
2017-Oct-09 06:00N 44°11' E 022°45'2 3.8
2017-Oct-09 05:30N 44°10' E 022°47'2 4.1
2017-Oct-09 05:00N 44°09' E 022°50'2 3.3
2017-Oct-09 04:30N 44°08' E 022°52'2 3.8
2017-Oct-09 04:00N 44°07' E 022°54'2 3.2
2017-Oct-09 03:30N 44°06' E 022°56'2 3.8
2017-Oct-09 03:00N 44°06' E 022°58'2 3.8
2017-Oct-09 02:30N 44°05' E 023°01'2 3.7
2017-Oct-09 02:00N 44°04' E 023°03'2 3.3
2017-Oct-09 01:30N 44°03' E 023°02'2 3.5
2017-Oct-09 01:00N 44°01' E 023°01'2 3.3
2017-Oct-09 00:30N 44°00' E 022°59'2 3.8
2017-Oct-09 00:00N 44°00' E 022°56'2 4.1
2017-Oct-08 23:30N 43°60' E 022°54'2 3.7
2017-Oct-08 23:00N 43°58' E 022°52'2 4.2
2017-Oct-08 22:30N 43°56' E 022°52'2 3.7
2017-Oct-08 22:00N 43°54' E 022°51'2 3.8
2017-Oct-08 21:30N 43°52' E 022°50'2 3.8
2017-Oct-08 21:00N 43°51' E 022°52'2 4.1
2017-Oct-08 20:30N 43°50' E 022°54'2 4.1
2017-Oct-08 20:00N 43°49' E 022°57'2 3.8
2017-Oct-08 19:29N 43°49' E 022°59'2 3.7
2017-Oct-08 19:00N 43°48' E 023°02'2 3.1
2017-Oct-08 18:29N 43°48' E 023°04'2 3.7
2017-Oct-08 17:59N 43°48' E 023°07'2 3.5
2017-Oct-08 17:30N 43°49' E 023°09'3 4.1
2017-Oct-08 16:53N 43°50' E 023°12'2 4.0
2017-Oct-08 16:29N 43°50' E 023°14'2 3.5
2017-Oct-08 16:00N 43°51' E 023°16'2 3.8
2017-Oct-08 15:24N 43°51' E 023°19'  
Track history (hours):
 
Tides and Currents Weather Stations Pressure Air Temp Water Temp Dewpoint Dewpoint Depression Visibility Wind Speed Wind Dir Waves Ship Positions

Mercur 301

Last reported at 2017-Oct-18 10:43 UTC. Time now 2017-Oct-19 05:44 UTC.
Position N 47°15' E 018°55'.

Length 35 m; draft 2.3 m.

Type: Ship. MMSI: 264162351.

Date/timePositionNaut miles runAvg speedWind from/ knotsBaromVisibWave heightAir tempDewpointWater temp
2017-Oct-18 10:43N 47°15' E 018°55'2 7.2
2017-Oct-18 10:31N 47°16' E 018°55'4 7.0
2017-Oct-18 10:00N 47°20' E 018°56'3 5.9
2017-Oct-18 09:30N 47°22' E 018°58'1 0.4
2017-Oct-18 07:33N 47°23' E 018°59'0 2.0
2017-Oct-18 07:21N 47°23' E 018°59'2 6.9
2017-Oct-18 07:00N 47°24' E 019°02'2 3.7
2017-Oct-18 06:30N 47°26' E 019°03'0 0.4
2017-Oct-18 06:01N 47°26' E 019°03'0 0.0
2017-Oct-18 05:31N 47°26' E 019°03'0 0.0
2017-Oct-18 05:00N 47°26' E 019°03'0 0.0
2017-Oct-18 04:31N 47°26' E 019°03'0 0.0
2017-Oct-18 04:00N 47°26' E 019°03'0 0.0
2017-Oct-18 03:31N 47°26' E 019°03'0 0.0
2017-Oct-18 03:00N 47°26' E 019°03'0 0.0
2017-Oct-18 02:30N 47°26' E 019°03'0 0.0
2017-Oct-18 02:01N 47°26' E 019°03'0 0.0
2017-Oct-18 01:31N 47°26' E 019°03'0 0.0
2017-Oct-18 01:00N 47°26' E 019°03'0 0.0
2017-Oct-18 00:30N 47°26' E 019°03'0 0.0
2017-Oct-18 00:00N 47°26' E 019°03'0 0.0
2017-Oct-17 23:29N 47°26' E 019°03'0 0.0
2017-Oct-17 22:59N 47°26' E 019°03'0 0.0
2017-Oct-17 22:31N 47°26' E 019°03'0 0.0
2017-Oct-17 22:00N 47°26' E 019°03'0 0.0
2017-Oct-17 21:30N 47°26' E 019°03'0 0.0
2017-Oct-17 21:00N 47°26' E 019°03'0 0.0
2017-Oct-17 20:30N 47°26' E 019°03'0 0.0
2017-Oct-17 20:00N 47°26' E 019°03'0 0.2
2017-Oct-17 19:30N 47°26' E 019°03'0 0.2
2017-Oct-17 19:00N 47°26' E 019°03'1 1.6
2017-Oct-17 18:30N 47°25' E 019°03'3 5.5
2017-Oct-17 17:57N 47°23' E 018°59'1 0.7
2017-Oct-17 17:12N 47°23' E 018°59'0 0.0
2017-Oct-17 17:00N 47°23' E 018°59'0 0.1
2017-Oct-17 16:30N 47°23' E 018°59'0 0.0
2017-Oct-17 15:49N 47°23' E 018°59'0 0.0
2017-Oct-17 15:19N 47°23' E 018°59'1 0.8
2017-Oct-17 14:40N 47°23' E 018°59'1 6.5
2017-Oct-17 14:30N 47°23' E 019°01'3 6.8
2017-Oct-17 14:00N 47°26' E 019°03'0 0.9
2017-Oct-17 13:29N 47°26' E 019°03'0 0.1
2017-Oct-17 13:00N 47°26' E 019°03'0 0.2
2017-Oct-17 12:31N 47°26' E 019°03'0 0.2
2017-Oct-17 12:00N 47°26' E 019°03'1 1.4
2017-Oct-17 11:30N 47°25' E 019°03'0 0.6
2017-Oct-17 11:01N 47°25' E 019°03'1 2.7
2017-Oct-17 10:31N 47°27' E 019°04'0 0.1
2017-Oct-17 10:01N 47°27' E 019°04'0 0.2
2017-Oct-17 09:30N 47°27' E 019°04'0 0.0
2017-Oct-17 09:00N 47°27' E 019°04'0 0.0
2017-Oct-17 08:31N 47°27' E 019°04'0 0.0
2017-Oct-17 08:00N 47°27' E 019°04'0 0.0
2017-Oct-17 07:30N 47°27' E 019°04'0 0.0
2017-Oct-17 07:00N 47°27' E 019°04'0 1.0
2017-Oct-17 06:31N 47°26' E 019°03'1 1.1
2017-Oct-17 06:00N 47°26' E 019°03'0 0.0
2017-Oct-17 05:30N 47°26' E 019°03'0 0.0
2017-Oct-17 04:59N 47°26' E 019°03'0 0.0
2017-Oct-17 04:30N 47°26' E 019°03'0 0.0
2017-Oct-17 04:01N 47°26' E 019°03'0 0.0
2017-Oct-17 03:30N 47°26' E 019°03'0 0.0
2017-Oct-17 03:01N 47°26' E 019°03'0 0.0
2017-Oct-17 02:30N 47°26' E 019°03'0 0.0
2017-Oct-17 02:01N 47°26' E 019°03'0 0.0
2017-Oct-17 01:30N 47°26' E 019°03'0 0.0
2017-Oct-17 01:00N 47°26' E 019°03'0 0.0
2017-Oct-17 00:30N 47°26' E 019°03'0 0.0
2017-Oct-17 00:01N 47°26' E 019°03'0 0.0
2017-Oct-16 23:30N 47°26' E 019°03'0 0.0
2017-Oct-16 23:01N 47°26' E 019°03'2 4.1
2017-Oct-16 22:29N 47°28' E 019°04'1 2.0
2017-Oct-16 22:01N 47°29' E 019°04'0 0.0
2017-Oct-16 21:31N 47°29' E 019°04'0 0.0
2017-Oct-16 21:01N 47°29' E 019°04'0 0.0
2017-Oct-16 20:30N 47°29' E 019°04'0 0.0
2017-Oct-16 20:00N 47°29' E 019°04'0 0.0
2017-Oct-16 19:31N 47°29' E 019°04'0 0.3
2017-Oct-16 19:01N 47°29' E 019°04'2 4.5
2017-Oct-16 18:31N 47°27' E 019°03'1 1.4
2017-Oct-16 18:00N 47°26' E 019°03'2 3.3
2017-Oct-16 17:30N 47°24' E 019°02'3 6.2
2017-Oct-16 17:00N 47°23' E 018°58'3 5.6
2017-Oct-16 16:29N 47°20' E 018°57'  
2017-Oct-14 08:12N 46°01' E 018°41'0 0.0
2017-Oct-14 07:56N 46°01' E 018°41'0 0.0
2017-Oct-14 07:28N 46°01' E 018°41'0 0.0
2017-Oct-14 07:00N 46°01' E 018°41'0 0.0
2017-Oct-14 06:30N 46°01' E 018°41'1 1.3
2017-Oct-14 05:52N 46°00' E 018°41'0 0.0
2017-Oct-14 05:29N 46°00' E 018°41'0 0.0
2017-Oct-14 05:00N 46°00' E 018°41'3 3.1
2017-Oct-14 04:00N 45°58' E 018°45'2 3.2
2017-Oct-14 03:29N 45°57' E 018°46'2 3.3
2017-Oct-14 02:56N 45°55' E 018°48'1 3.4
2017-Oct-14 02:30N 45°54' E 018°49'2 3.4
2017-Oct-14 02:01N 45°53' E 018°50'1 2.9
2017-Oct-14 01:30N 45°52' E 018°51'1 2.8
2017-Oct-14 01:00N 45°50' E 018°51'0 0.0
2017-Oct-14 00:28N 45°50' E 018°51'0 0.0
2017-Oct-14 00:01N 45°50' E 018°51'0 0.0
2017-Oct-13 23:30N 45°50' E 018°51'0 0.0
2017-Oct-13 22:59N 45°50' E 018°51'0 0.0
2017-Oct-13 21:43N 45°50' E 018°51'0 0.0
2017-Oct-13 21:30N 45°50' E 018°51'0 0.0
2017-Oct-13 21:00N 45°50' E 018°51'0 0.0
2017-Oct-13 20:30N 45°50' E 018°51'0 0.0
2017-Oct-13 19:59N 45°50' E 018°51'0 0.0
2017-Oct-13 19:30N 45°50' E 018°51'0 0.0
2017-Oct-13 19:00N 45°50' E 018°51'0 0.0
2017-Oct-13 18:30N 45°50' E 018°51'0 0.0
2017-Oct-13 18:00N 45°50' E 018°51'0 0.0
2017-Oct-13 17:30N 45°50' E 018°51'0 0.0
2017-Oct-13 17:00N 45°50' E 018°51'1 1.0
2017-Oct-13 16:30N 45°50' E 018°51'2 3.6
2017-Oct-13 16:01N 45°48' E 018°51'2 3.2
2017-Oct-13 15:31N 45°47' E 018°53'1 3.0
2017-Oct-13 15:00N 45°46' E 018°54'2 3.5
2017-Oct-13 14:31N 45°44' E 018°54'2 3.6
2017-Oct-13 14:01N 45°42' E 018°55'2 3.5
2017-Oct-13 13:31N 45°41' E 018°56'2 3.0
2017-Oct-13 13:01N 45°40' E 018°58'2 3.5
2017-Oct-13 12:31N 45°39' E 018°56'2 3.1
2017-Oct-13 12:01N 45°37' E 018°55'2 3.1
2017-Oct-13 11:31N 45°36' E 018°55'2 3.4
2017-Oct-13 11:01N 45°34' E 018°53'1 2.9
2017-Oct-13 10:30N 45°33' E 018°55'2 3.3
2017-Oct-13 10:01N 45°32' E 018°56'2 3.1
2017-Oct-13 09:31N 45°32' E 018°59'2 3.2
2017-Oct-13 09:01N 45°33' E 019°00'1 2.0
2017-Oct-13 08:31N 45°33' E 019°02'1 2.7
2017-Oct-13 08:01N 45°32' E 019°03'1 2.6
2017-Oct-13 07:31N 45°32' E 019°05'1 2.9
2017-Oct-13 07:01N 45°30' E 019°06'2 3.2
2017-Oct-13 06:31N 45°29' E 019°04'2 3.5
2017-Oct-13 06:01N 45°29' E 019°02'1 2.8
2017-Oct-13 05:31N 45°30' E 018°60'2 3.2
2017-Oct-13 05:01N 45°28' E 018°59'2 3.3
2017-Oct-13 04:30N 45°26' E 018°60'2 3.2
2017-Oct-13 04:01N 45°25' E 019°02'1 2.8
2017-Oct-13 03:31N 45°24' E 019°01'2 3.4
2017-Oct-13 03:01N 45°24' E 018°59'1 2.9
2017-Oct-13 02:31N 45°22' E 018°58'1 1.1
2017-Oct-13 02:00N 45°22' E 018°59'0 0.0
2017-Oct-13 01:31N 45°22' E 018°59'0 0.0
2017-Oct-13 00:59N 45°22' E 018°59'0 0.0
2017-Oct-13 00:22N 45°22' E 018°59'0 0.0
2017-Oct-13 00:00N 45°22' E 018°59'0 0.0
2017-Oct-12 23:30N 45°22' E 018°59'0 0.0
2017-Oct-12 22:58N 45°22' E 018°59'0 0.0
2017-Oct-12 22:31N 45°22' E 018°59'0 0.0
2017-Oct-12 21:57N 45°22' E 018°59'0 0.0
2017-Oct-12 21:29N 45°22' E 018°59'0 0.0
2017-Oct-12 21:00N 45°22' E 018°59'0 0.1
2017-Oct-12 20:30N 45°22' E 018°59'2 3.2
2017-Oct-12 20:01N 45°21' E 019°01'2 3.4
2017-Oct-12 19:31N 45°21' E 019°03'2 3.5
2017-Oct-12 19:00N 45°20' E 019°05'2 3.2
2017-Oct-12 18:31N 45°19' E 019°06'2 3.1
2017-Oct-12 17:48N 45°17' E 019°08'1 3.5
2017-Oct-12 17:31N 45°17' E 019°09'2 3.5
2017-Oct-12 17:00N 45°16' E 019°12'5 3.1
2017-Oct-12 15:29N 45°14' E 019°18'2 3.5
2017-Oct-12 14:51N 45°14' E 019°21'1 3.6
2017-Oct-12 14:31N 45°14' E 019°23'2 3.6
2017-Oct-12 14:01N 45°14' E 019°25'3 3.3
2017-Oct-12 13:01N 45°15' E 019°30'0 2.1
2017-Oct-12 13:00N 45°15' E 019°30'2 2.0
2017-Oct-12 12:10N 45°15' E 019°32'2 3.0
2017-Oct-12 11:26N 45°13' E 019°34'4 2.9
2017-Oct-12 10:03N 45°13' E 019°40'0 3.5
2017-Oct-12 09:59N 45°13' E 019°40'2 3.4
2017-Oct-12 09:27N 45°14' E 019°42'2 3.4
2017-Oct-12 09:00N 45°14' E 019°45'2 3.6
2017-Oct-12 08:30N 45°13' E 019°47'4 1.8
2017-Oct-12 06:26N 45°16' E 019°51'0 0.0
2017-Oct-12 04:36N 45°16' E 019°51'0 4.1
2017-Oct-12 04:31N 45°16' E 019°52'1 0.4
2017-Oct-12 01:31N 45°15' E 019°54'0 3.0
2017-Oct-12 01:30N 45°15' E 019°54'2 3.5
2017-Oct-12 01:00N 45°14' E 019°55'2 3.7
2017-Oct-12 00:31N 45°13' E 019°56'2 3.8
2017-Oct-12 00:00N 45°11' E 019°58'2 3.7
2017-Oct-11 23:31N 45°11' E 020°01'2 3.5
2017-Oct-11 23:00N 45°10' E 020°03'2 3.4
2017-Oct-11 22:30N 45°10' E 020°06'2 3.3
2017-Oct-11 22:00N 45°10' E 020°08'2 3.7
2017-Oct-11 21:30N 45°11' E 020°10'2 3.2
2017-Oct-11 21:00N 45°10' E 020°12'2 3.5
2017-Oct-11 20:30N 45°10' E 020°15'2 3.6
2017-Oct-11 20:00N 45°08' E 020°16'2 3.9
2017-Oct-11 19:30N 45°07' E 020°18'2 3.8
2017-Oct-11 19:00N 45°05' E 020°19'2 3.9
2017-Oct-11 18:30N 45°04' E 020°21'2 4.0
2017-Oct-11 18:00N 45°02' E 020°22'2 3.2
2017-Oct-11 17:30N 45°00' E 020°21'2 4.1
2017-Oct-11 17:00N 44°60' E 020°18'53 3.1
2017-Oct-10 23:56N 44°46' E 021°30'0 0.0
2017-Oct-10 23:17N 44°46' E 021°30'0 0.0
2017-Oct-10 22:57N 44°46' E 021°30'0 0.0
2017-Oct-10 22:31N 44°46' E 021°30'0 0.0
2017-Oct-10 22:01N 44°46' E 021°30'0 0.0
2017-Oct-10 21:31N 44°46' E 021°30'0 0.0
2017-Oct-10 20:52N 44°46' E 021°30'0 0.0
2017-Oct-10 20:30N 44°46' E 021°30'0 0.5
2017-Oct-10 20:00N 44°46' E 021°31'0 0.3
2017-Oct-10 19:30N 44°46' E 021°31'0 0.0
2017-Oct-10 18:52N 44°46' E 021°31'0 0.0
2017-Oct-10 18:30N 44°46' E 021°31'0 0.0
2017-Oct-10 17:52N 44°46' E 021°31'0 0.0
2017-Oct-10 17:30N 44°46' E 021°31'0 0.0
2017-Oct-10 16:52N 44°46' E 021°31'0 0.9
2017-Oct-10 16:30N 44°46' E 021°31'3 4.5
2017-Oct-10 15:56N 44°46' E 021°34'2 4.4
2017-Oct-10 15:30N 44°45' E 021°36'2 4.5
2017-Oct-10 15:00N 44°43' E 021°38'16 4.5
2017-Oct-10 11:20N 44°38' E 021°60'2 4.9
2017-Oct-10 10:56N 44°36' E 022°01'2 5.0
2017-Oct-10 10:30N 44°34' E 022°02'3 5.1
2017-Oct-10 10:01N 44°32' E 022°04'3 5.2
2017-Oct-10 09:31N 44°30' E 022°06'3 5.4
2017-Oct-10 09:00N 44°28' E 022°09'2 4.8
2017-Oct-10 08:30N 44°30' E 022°12'11 0.6
2017-Oct-09 12:21N 44°28' E 022°27'2 5.0
2017-Oct-09 12:00N 44°26' E 022°29'2 4.8
2017-Oct-09 11:31N 44°24' E 022°30'3 5.1
2017-Oct-09 11:01N 44°22' E 022°31'3 5.0
2017-Oct-09 10:31N 44°20' E 022°33'1 2.0
2017-Oct-09 10:01N 44°19' E 022°34'1 1.5
2017-Oct-09 09:31N 44°19' E 022°35'2 3.6
2017-Oct-09 09:01N 44°18' E 022°37'2 3.6
2017-Oct-09 08:31N 44°17' E 022°39'2 3.5
2017-Oct-09 08:01N 44°16' E 022°41'2 3.8
2017-Oct-09 07:31N 44°14' E 022°41'2 3.3
2017-Oct-09 07:00N 44°13' E 022°41'2 3.7
2017-Oct-09 06:30N 44°12' E 022°44'1 2.9
2017-Oct-09 06:00N 44°11' E 022°45'2 3.8
2017-Oct-09 05:30N 44°10' E 022°47'2 4.1
2017-Oct-09 05:00N 44°09' E 022°50'2 3.3
2017-Oct-09 04:30N 44°08' E 022°52'2 3.8
2017-Oct-09 04:00N 44°07' E 022°54'2 3.2
2017-Oct-09 03:30N 44°06' E 022°56'2 3.8
2017-Oct-09 03:00N 44°06' E 022°58'2 3.8
2017-Oct-09 02:30N 44°05' E 023°01'2 3.7
2017-Oct-09 02:00N 44°04' E 023°03'2 3.3
2017-Oct-09 01:30N 44°03' E 023°02'2 3.5
2017-Oct-09 01:00N 44°01' E 023°01'2 3.3
2017-Oct-09 00:30N 44°00' E 022°59'2 3.8
2017-Oct-09 00:00N 44°00' E 022°56'2 4.1
2017-Oct-08 23:30N 43°60' E 022°54'2 3.7
2017-Oct-08 23:00N 43°58' E 022°52'2 4.2
2017-Oct-08 22:30N 43°56' E 022°52'2 3.7
2017-Oct-08 22:00N 43°54' E 022°51'2 3.8
2017-Oct-08 21:30N 43°52' E 022°50'2 3.8
2017-Oct-08 21:00N 43°51' E 022°52'2 4.1
2017-Oct-08 20:30N 43°50' E 022°54'2 4.1
2017-Oct-08 20:00N 43°49' E 022°57'2 3.8
2017-Oct-08 19:29N 43°49' E 022°59'2 3.7
2017-Oct-08 19:00N 43°48' E 023°02'2 3.1
2017-Oct-08 18:29N 43°48' E 023°04'2 3.7
2017-Oct-08 17:59N 43°48' E 023°07'2 3.5
2017-Oct-08 17:30N 43°49' E 023°09'3 4.1
2017-Oct-08 16:53N 43°50' E 023°12'2 4.0
2017-Oct-08 16:29N 43°50' E 023°14'2 3.5
2017-Oct-08 16:00N 43°51' E 023°16'2 3.8
2017-Oct-08 15:24N 43°51' E 023°19'  

Dump ship's entire track history